sensor_id;sensor_type;location;lat;lon;timestamp;P1;durP1;ratioP1;P2;durP2;ratioP2
23062;SDS011;11699;43.704;10.430;2023-04-28T00:00:22;0.10;;;0.10;;
23062;SDS011;11699;43.704;10.430;2023-04-28T00:02:50;0.10;;;0.10;;
23062;SDS011;11699;43.704;10.430;2023-04-28T00:05:19;0.10;;;0.10;;
23062;SDS011;11699;43.704;10.430;2023-04-28T00:07:48;0.10;;;0.10;;
23062;SDS011;11699;43.704;10.430;2023-04-28T00:10:15;0.00;;;0.00;;
23062;SDS011;11699;43.704;10.430;2023-04-28T00:12:42;0.10;;;0.10;;
23062;SDS011;11699;43.704;10.430;2023-04-28T00:15:09;0.10;;;0.10;;
23062;SDS011;11699;43.704;10.430;2023-04-28T00:17:37;0.20;;;0.20;;
23062;SDS011;11699;43.704;10.430;2023-04-28T00:20:05;0.10;;;0.10;;
23062;SDS011;11699;43.704;10.430;2023-04-28T00:22:34;0.10;;;0.10;;
23062;SDS011;11699;43.704;10.430;2023-04-28T00:25:02;0.20;;;0.20;;
23062;SDS011;11699;43.704;10.430;2023-04-28T00:27:31;0.10;;;0.10;;
23062;SDS011;11699;43.704;10.430;2023-04-28T00:29:59;0.10;;;0.10;;
23062;SDS011;11699;43.704;10.430;2023-04-28T00:32:27;0.10;;;0.10;;
23062;SDS011;11699;43.704;10.430;2023-04-28T00:34:55;0.10;;;0.10;;
23062;SDS011;11699;43.704;10.430;2023-04-28T00:37:23;0.10;;;0.10;;
23062;SDS011;11699;43.704;10.430;2023-04-28T00:39:55;0.00;;;0.00;;
23062;SDS011;11699;43.704;10.430;2023-04-28T00:42:22;0.10;;;0.10;;
23062;SDS011;11699;43.704;10.430;2023-04-28T00:44:50;0.10;;;0.10;;
23062;SDS011;11699;43.704;10.430;2023-04-28T00:47:17;0.10;;;0.10;;
23062;SDS011;11699;43.704;10.430;2023-04-28T00:49:45;0.10;;;0.10;;
23062;SDS011;11699;43.704;10.430;2023-04-28T00:52:14;0.10;;;0.10;;
23062;SDS011;11699;43.704;10.430;2023-04-28T00:54:41;0.07;;;0.07;;
23062;SDS011;11699;43.704;10.430;2023-04-28T00:57:10;0.00;;;0.00;;
23062;SDS011;11699;43.704;10.430;2023-04-28T00:59:38;0.10;;;0.10;;
23062;SDS011;11699;43.704;10.430;2023-04-28T01:02:05;0.10;;;0.10;;
23062;SDS011;11699;43.704;10.430;2023-04-28T01:04:33;0.10;;;0.10;;
23062;SDS011;11699;43.704;10.430;2023-04-28T01:07:01;0.10;;;0.10;;
23062;SDS011;11699;43.704;10.430;2023-04-28T01:09:32;0.10;;;0.10;;
23062;SDS011;11699;43.704;10.430;2023-04-28T01:11:59;0.10;;;0.10;;
23062;SDS011;11699;43.704;10.430;2023-04-28T01:14:28;0.10;;;0.10;;
23062;SDS011;11699;43.704;10.430;2023-04-28T01:16:56;0.10;;;0.10;;
23062;SDS011;11699;43.704;10.430;2023-04-28T01:19:24;0.10;;;0.10;;
23062;SDS011;11699;43.704;10.430;2023-04-28T01:21:52;0.10;;;0.10;;
23062;SDS011;11699;43.704;10.430;2023-04-28T01:24:21;0.10;;;0.10;;
23062;SDS011;11699;43.704;10.430;2023-04-28T01:26:49;0.10;;;0.10;;
23062;SDS011;11699;43.704;10.430;2023-04-28T01:29:16;0.10;;;0.10;;
23062;SDS011;11699;43.704;10.430;2023-04-28T01:31:44;0.10;;;0.10;;
23062;SDS011;11699;43.704;10.430;2023-04-28T01:34:11;0.10;;;0.10;;
23062;SDS011;11699;43.704;10.430;2023-04-28T01:36:38;0.10;;;0.10;;
23062;SDS011;11699;43.704;10.430;2023-04-28T01:39:06;0.10;;;0.10;;
23062;SDS011;11699;43.704;10.430;2023-04-28T01:41:35;0.10;;;0.10;;
23062;SDS011;11699;43.704;10.430;2023-04-28T01:44:03;0.10;;;0.10;;
23062;SDS011;11699;43.704;10.430;2023-04-28T01:46:32;0.10;;;0.10;;
23062;SDS011;11699;43.704;10.430;2023-04-28T01:48:59;0.10;;;0.10;;
23062;SDS011;11699;43.704;10.430;2023-04-28T01:51:27;0.10;;;0.10;;
23062;SDS011;11699;43.704;10.430;2023-04-28T01:53:55;0.00;;;0.00;;
23062;SDS011;11699;43.704;10.430;2023-04-28T01:56:23;0.00;;;0.00;;
23062;SDS011;11699;43.704;10.430;2023-04-28T01:58:52;0.10;;;0.10;;
23062;SDS011;11699;43.704;10.430;2023-04-28T02:01:19;0.10;;;0.10;;
23062;SDS011;11699;43.704;10.430;2023-04-28T02:03:47;0.10;;;0.10;;
23062;SDS011;11699;43.704;10.430;2023-04-28T02:06:15;0.10;;;0.10;;
23062;SDS011;11699;43.704;10.430;2023-04-28T02:08:42;0.10;;;0.10;;
23062;SDS011;11699;43.704;10.430;2023-04-28T02:11:10;0.10;;;0.10;;
23062;SDS011;11699;43.704;10.430;2023-04-28T02:13:37;0.10;;;0.10;;
23062;SDS011;11699;43.704;10.430;2023-04-28T02:16:07;0.10;;;0.10;;
23062;SDS011;11699;43.704;10.430;2023-04-28T02:18:35;0.20;;;0.20;;
23062;SDS011;11699;43.704;10.430;2023-04-28T02:21:07;0.10;;;0.10;;
23062;SDS011;11699;43.704;10.430;2023-04-28T02:23:35;0.07;;;0.07;;
23062;SDS011;11699;43.704;10.430;2023-04-28T02:26:03;0.10;;;0.10;;
23062;SDS011;11699;43.704;10.430;2023-04-28T02:28:30;0.10;;;0.10;;
23062;SDS011;11699;43.704;10.430;2023-04-28T02:31:04;0.10;;;0.10;;
23062;SDS011;11699;43.704;10.430;2023-04-28T02:33:33;0.07;;;0.07;;
23062;SDS011;11699;43.704;10.430;2023-04-28T02:36:01;0.10;;;0.10;;
23062;SDS011;11699;43.704;10.430;2023-04-28T02:38:29;0.00;;;0.00;;
23062;SDS011;11699;43.704;10.430;2023-04-28T02:40:57;0.10;;;0.10;;
23062;SDS011;11699;43.704;10.430;2023-04-28T02:43:25;0.10;;;0.10;;
23062;SDS011;11699;43.704;10.430;2023-04-28T02:45:52;0.10;;;0.10;;
23062;SDS011;11699;43.704;10.430;2023-04-28T02:48:22;0.13;;;0.13;;
23062;SDS011;11699;43.704;10.430;2023-04-28T02:50:50;0.10;;;0.10;;
23062;SDS011;11699;43.704;10.430;2023-04-28T02:53:18;0.10;;;0.10;;
23062;SDS011;11699;43.704;10.430;2023-04-28T02:55:46;0.10;;;0.10;;
23062;SDS011;11699;43.704;10.430;2023-04-28T02:58:13;0.10;;;0.10;;
23062;SDS011;11699;43.704;10.430;2023-04-28T03:00:42;0.00;;;0.00;;
23062;SDS011;11699;43.704;10.430;2023-04-28T03:03:11;0.10;;;0.10;;
23062;SDS011;11699;43.704;10.430;2023-04-28T03:05:40;0.00;;;0.00;;
23062;SDS011;11699;43.704;10.430;2023-04-28T03:08:07;0.10;;;0.10;;
23062;SDS011;11699;43.704;10.430;2023-04-28T03:10:35;0.10;;;0.10;;
23062;SDS011;11699;43.704;10.430;2023-04-28T03:13:02;0.00;;;0.00;;
23062;SDS011;11699;43.704;10.430;2023-04-28T03:15:30;0.10;;;0.10;;
23062;SDS011;11699;43.704;10.430;2023-04-28T03:17:58;0.10;;;0.10;;
23062;SDS011;11699;43.704;10.430;2023-04-28T03:20:25;0.10;;;0.10;;
23062;SDS011;11699;43.704;10.430;2023-04-28T03:22:54;0.03;;;0.03;;
23062;SDS011;11699;43.704;10.430;2023-04-28T03:25:21;0.10;;;0.10;;
23062;SDS011;11699;43.704;10.430;2023-04-28T03:27:49;0.10;;;0.10;;
23062;SDS011;11699;43.704;10.430;2023-04-28T03:30:16;0.10;;;0.10;;
23062;SDS011;11699;43.704;10.430;2023-04-28T03:32:44;0.10;;;0.10;;
23062;SDS011;11699;43.704;10.430;2023-04-28T03:35:12;0.10;;;0.10;;
23062;SDS011;11699;43.704;10.430;2023-04-28T03:37:39;0.20;;;0.20;;
23062;SDS011;11699;43.704;10.430;2023-04-28T03:40:09;0.10;;;0.10;;
23062;SDS011;11699;43.704;10.430;2023-04-28T03:42:37;0.10;;;0.10;;
23062;SDS011;11699;43.704;10.430;2023-04-28T03:45:05;0.10;;;0.10;;
23062;SDS011;11699;43.704;10.430;2023-04-28T03:47:33;0.20;;;0.20;;
23062;SDS011;11699;43.704;10.430;2023-04-28T03:50:01;0.10;;;0.10;;
23062;SDS011;11699;43.704;10.430;2023-04-28T03:52:29;0.20;;;0.20;;
23062;SDS011;11699;43.704;10.430;2023-04-28T03:54:57;0.07;;;0.07;;
23062;SDS011;11699;43.704;10.430;2023-04-28T03:57:26;0.10;;;0.10;;
23062;SDS011;11699;43.704;10.430;2023-04-28T03:59:53;0.10;;;0.10;;
23062;SDS011;11699;43.704;10.430;2023-04-28T04:02:20;0.10;;;0.10;;
23062;SDS011;11699;43.704;10.430;2023-04-28T04:04:48;0.20;;;0.20;;
23062;SDS011;11699;43.704;10.430;2023-04-28T04:07:16;0.10;;;0.10;;
23062;SDS011;11699;43.704;10.430;2023-04-28T04:09:43;0.10;;;0.10;;
23062;SDS011;11699;43.704;10.430;2023-04-28T04:12:11;0.10;;;0.10;;
23062;SDS011;11699;43.704;10.430;2023-04-28T04:14:39;0.10;;;0.10;;
23062;SDS011;11699;43.704;10.430;2023-04-28T04:17:07;0.10;;;0.10;;
23062;SDS011;11699;43.704;10.430;2023-04-28T04:19:35;0.20;;;0.20;;
23062;SDS011;11699;43.704;10.430;2023-04-28T04:22:03;0.10;;;0.10;;
23062;SDS011;11699;43.704;10.430;2023-04-28T04:24:30;0.10;;;0.10;;
23062;SDS011;11699;43.704;10.430;2023-04-28T04:26:58;0.10;;;0.10;;
23062;SDS011;11699;43.704;10.430;2023-04-28T04:29:25;0.10;;;0.10;;
23062;SDS011;11699;43.704;10.430;2023-04-28T04:31:54;0.00;;;0.00;;
23062;SDS011;11699;43.704;10.430;2023-04-28T04:34:22;0.10;;;0.10;;
23062;SDS011;11699;43.704;10.430;2023-04-28T04:36:49;0.10;;;0.10;;
23062;SDS011;11699;43.704;10.430;2023-04-28T04:39:16;0.10;;;0.10;;
23062;SDS011;11699;43.704;10.430;2023-04-28T04:41:44;0.10;;;0.10;;
23062;SDS011;11699;43.704;10.430;2023-04-28T04:44:11;0.20;;;0.20;;
23062;SDS011;11699;43.704;10.430;2023-04-28T04:46:39;0.10;;;0.10;;
23062;SDS011;11699;43.704;10.430;2023-04-28T04:49:08;0.10;;;0.10;;
23062;SDS011;11699;43.704;10.430;2023-04-28T04:51:35;0.17;;;0.17;;
23062;SDS011;11699;43.704;10.430;2023-04-28T04:54:03;0.10;;;0.10;;
23062;SDS011;11699;43.704;10.430;2023-04-28T04:56:31;0.13;;;0.13;;
23062;SDS011;11699;43.704;10.430;2023-04-28T04:58:59;0.10;;;0.10;;
23062;SDS011;11699;43.704;10.430;2023-04-28T05:01:27;0.10;;;0.10;;
23062;SDS011;11699;43.704;10.430;2023-04-28T05:03:54;0.10;;;0.10;;
23062;SDS011;11699;43.704;10.430;2023-04-28T05:06:23;0.10;;;0.10;;
23062;SDS011;11699;43.704;10.430;2023-04-28T05:08:51;0.10;;;0.10;;
23062;SDS011;11699;43.704;10.430;2023-04-28T05:11:18;0.10;;;0.10;;
23062;SDS011;11699;43.704;10.430;2023-04-28T05:13:46;0.10;;;0.10;;
23062;SDS011;11699;43.704;10.430;2023-04-28T05:16:13;0.10;;;0.10;;
23062;SDS011;11699;43.704;10.430;2023-04-28T05:18:40;0.03;;;0.03;;
23062;SDS011;11699;43.704;10.430;2023-04-28T05:21:08;0.03;;;0.03;;
23062;SDS011;11699;43.704;10.430;2023-04-28T05:23:37;0.20;;;0.20;;
23062;SDS011;11699;43.704;10.430;2023-04-28T05:26:05;0.20;;;0.20;;
23062;SDS011;11699;43.704;10.430;2023-04-28T05:28:32;0.20;;;0.20;;
23062;SDS011;11699;43.704;10.430;2023-04-28T05:31:00;0.10;;;0.10;;
23062;SDS011;11699;43.704;10.430;2023-04-28T05:33:28;0.10;;;0.10;;
23062;SDS011;11699;43.704;10.430;2023-04-28T05:35:55;0.00;;;0.00;;
23062;SDS011;11699;43.704;10.430;2023-04-28T05:38:22;0.20;;;0.20;;
23062;SDS011;11699;43.704;10.430;2023-04-28T05:40:51;0.10;;;0.10;;
23062;SDS011;11699;43.704;10.430;2023-04-28T05:43:19;0.10;;;0.10;;
23062;SDS011;11699;43.704;10.430;2023-04-28T05:45:46;0.05;;;0.05;;
23062;SDS011;11699;43.704;10.430;2023-04-28T05:48:13;0.08;;;0.08;;
23062;SDS011;11699;43.704;10.430;2023-04-28T05:50:41;0.10;;;0.10;;
23062;SDS011;11699;43.704;10.430;2023-04-28T05:53:08;0.10;;;0.10;;
23062;SDS011;11699;43.704;10.430;2023-04-28T05:55:36;0.10;;;0.10;;
23062;SDS011;11699;43.704;10.430;2023-04-28T05:58:04;0.10;;;0.10;;
23062;SDS011;11699;43.704;10.430;2023-04-28T06:00:32;0.10;;;0.10;;
23062;SDS011;11699;43.704;10.430;2023-04-28T06:02:59;0.20;;;0.20;;
23062;SDS011;11699;43.704;10.430;2023-04-28T06:05:27;0.10;;;0.10;;
23062;SDS011;11699;43.704;10.430;2023-04-28T06:07:55;0.10;;;0.10;;
23062;SDS011;11699;43.704;10.430;2023-04-28T06:10:24;0.10;;;0.10;;
23062;SDS011;11699;43.704;10.430;2023-04-28T06:12:51;0.10;;;0.10;;
23062;SDS011;11699;43.704;10.430;2023-04-28T06:15:21;0.00;;;0.00;;
23062;SDS011;11699;43.704;10.430;2023-04-28T06:17:48;0.20;;;0.20;;
23062;SDS011;11699;43.704;10.430;2023-04-28T06:20:15;0.10;;;0.10;;
23062;SDS011;11699;43.704;10.430;2023-04-28T06:22:43;0.10;;;0.10;;
23062;SDS011;11699;43.704;10.430;2023-04-28T06:25:10;0.00;;;0.00;;
23062;SDS011;11699;43.704;10.430;2023-04-28T06:27:37;0.10;;;0.10;;
23062;SDS011;11699;43.704;10.430;2023-04-28T06:30:06;0.10;;;0.10;;
23062;SDS011;11699;43.704;10.430;2023-04-28T06:32:35;0.10;;;0.10;;
23062;SDS011;11699;43.704;10.430;2023-04-28T06:35:03;0.10;;;0.10;;
23062;SDS011;11699;43.704;10.430;2023-04-28T06:37:31;0.10;;;0.10;;
23062;SDS011;11699;43.704;10.430;2023-04-28T06:39:59;0.10;;;0.10;;
23062;SDS011;11699;43.704;10.430;2023-04-28T06:42:26;0.10;;;0.10;;
23062;SDS011;11699;43.704;10.430;2023-04-28T06:44:54;0.20;;;0.20;;
23062;SDS011;11699;43.704;10.430;2023-04-28T06:47:21;0.10;;;0.10;;
23062;SDS011;11699;43.704;10.430;2023-04-28T06:49:50;0.10;;;0.10;;
23062;SDS011;11699;43.704;10.430;2023-04-28T06:52:18;0.10;;;0.10;;
23062;SDS011;11699;43.704;10.430;2023-04-28T06:54:46;0.10;;;0.10;;
23062;SDS011;11699;43.704;10.430;2023-04-28T06:57:13;0.10;;;0.10;;
23062;SDS011;11699;43.704;10.430;2023-04-28T06:59:41;0.10;;;0.10;;
23062;SDS011;11699;43.704;10.430;2023-04-28T07:02:10;0.10;;;0.10;;
23062;SDS011;11699;43.704;10.430;2023-04-28T07:04:38;0.00;;;0.00;;
23062;SDS011;11699;43.704;10.430;2023-04-28T07:07:07;0.00;;;0.00;;
23062;SDS011;11699;43.704;10.430;2023-04-28T07:09:34;0.00;;;0.00;;
23062;SDS011;11699;43.704;10.430;2023-04-28T07:12:02;0.00;;;0.00;;
23062;SDS011;11699;43.704;10.430;2023-04-28T07:14:30;0.00;;;0.00;;
23062;SDS011;11699;43.704;10.430;2023-04-28T07:16:57;0.00;;;0.00;;
23062;SDS011;11699;43.704;10.430;2023-04-28T07:19:25;0.00;;;0.00;;
23062;SDS011;11699;43.704;10.430;2023-04-28T07:21:52;0.00;;;0.00;;
23062;SDS011;11699;43.704;10.430;2023-04-28T07:24:21;0.00;;;0.00;;
23062;SDS011;11699;43.704;10.430;2023-04-28T07:26:49;0.00;;;0.00;;
23062;SDS011;11699;43.704;10.430;2023-04-28T07:29:16;0.00;;;0.00;;
23062;SDS011;11699;43.704;10.430;2023-04-28T07:31:44;0.00;;;0.00;;
23062;SDS011;11699;43.704;10.430;2023-04-28T07:34:12;0.00;;;0.00;;
23062;SDS011;11699;43.704;10.430;2023-04-28T07:36:40;0.00;;;0.00;;
23062;SDS011;11699;43.704;10.430;2023-04-28T07:39:07;0.00;;;0.00;;
23062;SDS011;11699;43.704;10.430;2023-04-28T07:41:36;0.00;;;0.00;;
23062;SDS011;11699;43.704;10.430;2023-04-28T07:44:04;0.00;;;0.00;;
23062;SDS011;11699;43.704;10.430;2023-04-28T07:46:32;0.00;;;0.00;;
23062;SDS011;11699;43.704;10.430;2023-04-28T07:49:01;0.00;;;0.00;;
23062;SDS011;11699;43.704;10.430;2023-04-28T07:51:30;0.00;;;0.00;;
23062;SDS011;11699;43.704;10.430;2023-04-28T07:53:58;0.00;;;0.00;;
23062;SDS011;11699;43.704;10.430;2023-04-28T07:56:25;0.00;;;0.00;;
23062;SDS011;11699;43.704;10.430;2023-04-28T07:58:54;0.00;;;0.00;;
23062;SDS011;11699;43.704;10.430;2023-04-28T08:01:22;0.00;;;0.00;;
23062;SDS011;11699;43.704;10.430;2023-04-28T08:03:50;0.00;;;0.00;;
23062;SDS011;11699;43.704;10.430;2023-04-28T08:06:17;0.00;;;0.00;;
23062;SDS011;11699;43.704;10.430;2023-04-28T08:08:45;0.00;;;0.00;;
23062;SDS011;11699;43.704;10.430;2023-04-28T08:11:13;0.00;;;0.00;;
23062;SDS011;11699;43.704;10.430;2023-04-28T08:13:41;0.00;;;0.00;;
23062;SDS011;11699;43.704;10.430;2023-04-28T08:16:10;0.00;;;0.00;;
23062;SDS011;11699;43.704;10.430;2023-04-28T08:18:37;0.00;;;0.00;;
23062;SDS011;11699;43.704;10.430;2023-04-28T08:21:05;0.00;;;0.00;;
23062;SDS011;11699;43.704;10.430;2023-04-28T08:23:33;0.00;;;0.00;;
23062;SDS011;11699;43.704;10.430;2023-04-28T08:26:01;0.00;;;0.00;;
23062;SDS011;11699;43.704;10.430;2023-04-28T08:28:28;0.00;;;0.00;;
23062;SDS011;11699;43.704;10.430;2023-04-28T08:30:55;0.00;;;0.00;;
23062;SDS011;11699;43.704;10.430;2023-04-28T08:33:24;0.00;;;0.00;;
23062;SDS011;11699;43.704;10.430;2023-04-28T08:35:52;0.00;;;0.00;;
23062;SDS011;11699;43.704;10.430;2023-04-28T08:38:21;0.00;;;0.00;;
23062;SDS011;11699;43.704;10.430;2023-04-28T08:40:50;0.00;;;0.00;;
23062;SDS011;11699;43.704;10.430;2023-04-28T08:43:17;0.00;;;0.00;;
23062;SDS011;11699;43.704;10.430;2023-04-28T08:45:45;0.00;;;0.00;;
23062;SDS011;11699;43.704;10.430;2023-04-28T08:48:16;0.00;;;0.00;;
23062;SDS011;11699;43.704;10.430;2023-04-28T08:50:49;0.00;;;0.00;;
23062;SDS011;11699;43.704;10.430;2023-04-28T08:53:22;0.00;;;0.00;;
23062;SDS011;11699;43.704;10.430;2023-04-28T08:55:51;0.00;;;0.00;;
23062;SDS011;11699;43.704;10.430;2023-04-28T08:58:22;0.00;;;0.00;;
23062;SDS011;11699;43.704;10.430;2023-04-28T09:00:50;0.00;;;0.00;;
23062;SDS011;11699;43.704;10.430;2023-04-28T09:03:18;0.00;;;0.00;;
23062;SDS011;11699;43.704;10.430;2023-04-28T09:05:45;0.00;;;0.00;;
23062;SDS011;11699;43.704;10.430;2023-04-28T09:08:15;0.00;;;0.00;;
23062;SDS011;11699;43.704;10.430;2023-04-28T09:10:43;0.00;;;0.00;;
23062;SDS011;11699;43.704;10.430;2023-04-28T09:13:21;0.00;;;0.00;;
23062;SDS011;11699;43.704;10.430;2023-04-28T09:15:50;0.00;;;0.00;;
23062;SDS011;11699;43.704;10.430;2023-04-28T09:18:26;0.00;;;0.00;;
23062;SDS011;11699;43.704;10.430;2023-04-28T09:21:01;0.00;;;0.00;;
23062;SDS011;11699;43.704;10.430;2023-04-28T09:23:31;0.00;;;0.00;;
23062;SDS011;11699;43.704;10.430;2023-04-28T09:25:59;0.00;;;0.00;;
23062;SDS011;11699;43.704;10.430;2023-04-28T09:28:28;0.00;;;0.00;;
23062;SDS011;11699;43.704;10.430;2023-04-28T09:30:55;0.00;;;0.00;;
23062;SDS011;11699;43.704;10.430;2023-04-28T09:33:23;0.00;;;0.00;;
23062;SDS011;11699;43.704;10.430;2023-04-28T09:35:51;0.00;;;0.00;;
23062;SDS011;11699;43.704;10.430;2023-04-28T09:38:19;0.00;;;0.00;;
23062;SDS011;11699;43.704;10.430;2023-04-28T09:40:53;0.00;;;0.00;;
23062;SDS011;11699;43.704;10.430;2023-04-28T09:43:26;0.00;;;0.00;;
23062;SDS011;11699;43.704;10.430;2023-04-28T09:45:56;0.00;;;0.00;;
23062;SDS011;11699;43.704;10.430;2023-04-28T09:48:28;0.00;;;0.00;;
23062;SDS011;11699;43.704;10.430;2023-04-28T09:50:56;0.00;;;0.00;;
23062;SDS011;11699;43.704;10.430;2023-04-28T09:53:24;0.00;;;0.00;;
23062;SDS011;11699;43.704;10.430;2023-04-28T09:55:54;0.00;;;0.00;;
23062;SDS011;11699;43.704;10.430;2023-04-28T09:58:23;0.00;;;0.00;;
23062;SDS011;11699;43.704;10.430;2023-04-28T10:00:52;0.00;;;0.00;;
23062;SDS011;11699;43.704;10.430;2023-04-28T10:03:21;0.00;;;0.00;;
23062;SDS011;11699;43.704;10.430;2023-04-28T10:05:50;0.00;;;0.00;;
23062;SDS011;11699;43.704;10.430;2023-04-28T10:08:19;0.00;;;0.00;;
23062;SDS011;11699;43.704;10.430;2023-04-28T10:10:47;0.00;;;0.00;;
23062;SDS011;11699;43.704;10.430;2023-04-28T10:13:19;0.00;;;0.00;;
23062;SDS011;11699;43.704;10.430;2023-04-28T10:15:47;0.00;;;0.00;;
23062;SDS011;11699;43.704;10.430;2023-04-28T10:18:15;0.00;;;0.00;;
23062;SDS011;11699;43.704;10.430;2023-04-28T10:20:43;0.00;;;0.00;;
23062;SDS011;11699;43.704;10.430;2023-04-28T10:23:23;0.00;;;0.00;;
23062;SDS011;11699;43.704;10.430;2023-04-28T10:26:11;0.00;;;0.00;;
23062;SDS011;11699;43.704;10.430;2023-04-28T10:28:46;0.00;;;0.00;;
23062;SDS011;11699;43.704;10.430;2023-04-28T10:31:14;0.00;;;0.00;;
23062;SDS011;11699;43.704;10.430;2023-04-28T10:33:45;0.00;;;0.00;;
23062;SDS011;11699;43.704;10.430;2023-04-28T10:39:13;0.00;;;0.00;;
23062;SDS011;11699;43.704;10.430;2023-04-28T10:41:41;0.00;;;0.00;;
23062;SDS011;11699;43.704;10.430;2023-04-28T10:47:10;0.00;;;0.00;;
23062;SDS011;11699;43.704;10.430;2023-04-28T10:55:28;0.00;;;0.00;;
23062;SDS011;11699;43.704;10.430;2023-04-28T11:03:54;0.00;;;0.00;;
23062;SDS011;11699;43.704;10.430;2023-04-28T11:06:29;0.00;;;0.00;;
23062;SDS011;11699;43.704;10.430;2023-04-28T11:09:00;0.00;;;0.00;;
23062;SDS011;11699;43.704;10.430;2023-04-28T11:11:28;0.00;;;0.00;;
23062;SDS011;11699;43.704;10.430;2023-04-28T11:16:59;0.00;;;0.00;;
23062;SDS011;11699;43.704;10.430;2023-04-28T11:19:28;0.00;;;0.00;;
23062;SDS011;11699;43.704;10.430;2023-04-28T11:21:58;0.00;;;0.00;;
23062;SDS011;11699;43.704;10.430;2023-04-28T11:24:26;0.00;;;0.00;;
23062;SDS011;11699;43.704;10.430;2023-04-28T11:26:55;0.00;;;0.00;;
23062;SDS011;11699;43.704;10.430;2023-04-28T11:29:29;0.00;;;0.00;;
23062;SDS011;11699;43.704;10.430;2023-04-28T11:31:59;0.00;;;0.00;;
23062;SDS011;11699;43.704;10.430;2023-04-28T11:34:27;0.00;;;0.00;;
23062;SDS011;11699;43.704;10.430;2023-04-28T11:36:54;0.00;;;0.00;;
23062;SDS011;11699;43.704;10.430;2023-04-28T11:39:25;0.00;;;0.00;;
23062;SDS011;11699;43.704;10.430;2023-04-28T11:41:54;0.00;;;0.00;;
23062;SDS011;11699;43.704;10.430;2023-04-28T11:44:23;0.00;;;0.00;;
23062;SDS011;11699;43.704;10.430;2023-04-28T11:46:52;0.00;;;0.00;;
23062;SDS011;11699;43.704;10.430;2023-04-28T11:49:23;0.00;;;0.00;;
23062;SDS011;11699;43.704;10.430;2023-04-28T11:51:53;0.00;;;0.00;;
23062;SDS011;11699;43.704;10.430;2023-04-28T11:54:21;0.00;;;0.00;;
23062;SDS011;11699;43.704;10.430;2023-04-28T11:56:49;0.00;;;0.00;;
23062;SDS011;11699;43.704;10.430;2023-04-28T11:59:17;0.00;;;0.00;;
23062;SDS011;11699;43.704;10.430;2023-04-28T12:01:49;0.00;;;0.00;;
23062;SDS011;11699;43.704;10.430;2023-04-28T12:04:29;0.00;;;0.00;;
23062;SDS011;11699;43.704;10.430;2023-04-28T12:06:58;0.00;;;0.00;;
23062;SDS011;11699;43.704;10.430;2023-04-28T12:09:29;0.00;;;0.00;;
23062;SDS011;11699;43.704;10.430;2023-04-28T12:11:57;0.00;;;0.00;;
23062;SDS011;11699;43.704;10.430;2023-04-28T12:14:27;0.00;;;0.00;;
23062;SDS011;11699;43.704;10.430;2023-04-28T12:16:56;0.00;;;0.00;;
23062;SDS011;11699;43.704;10.430;2023-04-28T12:19:23;0.00;;;0.00;;
23062;SDS011;11699;43.704;10.430;2023-04-28T12:22:02;0.00;;;0.00;;
23062;SDS011;11699;43.704;10.430;2023-04-28T12:24:30;0.00;;;0.00;;
23062;SDS011;11699;43.704;10.430;2023-04-28T12:27:13;0.00;;;0.00;;
23062;SDS011;11699;43.704;10.430;2023-04-28T12:29:42;0.00;;;0.00;;
23062;SDS011;11699;43.704;10.430;2023-04-28T12:32:12;0.00;;;0.00;;
23062;SDS011;11699;43.704;10.430;2023-04-28T12:34:40;0.00;;;0.00;;
23062;SDS011;11699;43.704;10.430;2023-04-28T12:37:09;0.00;;;0.00;;
23062;SDS011;11699;43.704;10.430;2023-04-28T12:39:38;0.00;;;0.00;;
23062;SDS011;11699;43.704;10.430;2023-04-28T12:42:06;0.00;;;0.00;;
23062;SDS011;11699;43.704;10.430;2023-04-28T12:44:34;0.00;;;0.00;;
23062;SDS011;11699;43.704;10.430;2023-04-28T12:47:03;0.00;;;0.00;;
23062;SDS011;11699;43.704;10.430;2023-04-28T12:49:32;0.00;;;0.00;;
23062;SDS011;11699;43.704;10.430;2023-04-28T12:52:00;0.00;;;0.00;;
23062;SDS011;11699;43.704;10.430;2023-04-28T12:54:29;0.00;;;0.00;;
23062;SDS011;11699;43.704;10.430;2023-04-28T12:56:56;0.00;;;0.00;;
23062;SDS011;11699;43.704;10.430;2023-04-28T12:59:24;0.00;;;0.00;;
23062;SDS011;11699;43.704;10.430;2023-04-28T13:01:51;0.00;;;0.00;;
23062;SDS011;11699;43.704;10.430;2023-04-28T13:04:19;0.00;;;0.00;;
23062;SDS011;11699;43.704;10.430;2023-04-28T13:06:47;0.00;;;0.00;;
23062;SDS011;11699;43.704;10.430;2023-04-28T13:09:15;0.00;;;0.00;;
23062;SDS011;11699;43.704;10.430;2023-04-28T13:11:44;0.00;;;0.00;;
23062;SDS011;11699;43.704;10.430;2023-04-28T13:14:11;0.00;;;0.00;;
23062;SDS011;11699;43.704;10.430;2023-04-28T13:16:39;0.00;;;0.00;;
23062;SDS011;11699;43.704;10.430;2023-04-28T13:19:06;0.00;;;0.00;;
23062;SDS011;11699;43.704;10.430;2023-04-28T13:21:38;0.00;;;0.00;;
23062;SDS011;11699;43.704;10.430;2023-04-28T13:24:06;0.00;;;0.00;;
23062;SDS011;11699;43.704;10.430;2023-04-28T13:26:34;0.00;;;0.00;;
23062;SDS011;11699;43.704;10.430;2023-04-28T13:29:03;0.00;;;0.00;;
23062;SDS011;11699;43.704;10.430;2023-04-28T13:31:32;0.00;;;0.00;;
23062;SDS011;11699;43.704;10.430;2023-04-28T13:34:00;0.00;;;0.00;;
23062;SDS011;11699;43.704;10.430;2023-04-28T13:36:29;0.00;;;0.00;;
23062;SDS011;11699;43.704;10.430;2023-04-28T13:38:57;0.00;;;0.00;;
23062;SDS011;11699;43.704;10.430;2023-04-28T13:41:25;0.00;;;0.00;;
23062;SDS011;11699;43.704;10.430;2023-04-28T13:43:53;0.00;;;0.00;;
23062;SDS011;11699;43.704;10.430;2023-04-28T13:46:22;0.00;;;0.00;;
23062;SDS011;11699;43.704;10.430;2023-04-28T13:48:50;0.00;;;0.00;;
23062;SDS011;11699;43.704;10.430;2023-04-28T13:51:17;0.00;;;0.00;;
23062;SDS011;11699;43.704;10.430;2023-04-28T13:53:45;0.00;;;0.00;;
23062;SDS011;11699;43.704;10.430;2023-04-28T13:56:12;0.00;;;0.00;;
23062;SDS011;11699;43.704;10.430;2023-04-28T13:58:40;0.00;;;0.00;;
23062;SDS011;11699;43.704;10.430;2023-04-28T14:01:07;0.00;;;0.00;;
23062;SDS011;11699;43.704;10.430;2023-04-28T14:03:36;0.00;;;0.00;;
23062;SDS011;11699;43.704;10.430;2023-04-28T14:06:05;0.00;;;0.00;;
23062;SDS011;11699;43.704;10.430;2023-04-28T14:08:32;0.00;;;0.00;;
23062;SDS011;11699;43.704;10.430;2023-04-28T14:11:00;0.00;;;0.00;;
23062;SDS011;11699;43.704;10.430;2023-04-28T14:13:27;0.00;;;0.00;;
23062;SDS011;11699;43.704;10.430;2023-04-28T14:15:55;0.00;;;0.00;;
23062;SDS011;11699;43.704;10.430;2023-04-28T14:18:23;0.00;;;0.00;;
23062;SDS011;11699;43.704;10.430;2023-04-28T14:20:52;0.00;;;0.00;;
23062;SDS011;11699;43.704;10.430;2023-04-28T14:23:19;0.00;;;0.00;;
23062;SDS011;11699;43.704;10.430;2023-04-28T14:25:47;0.00;;;0.00;;
23062;SDS011;11699;43.704;10.430;2023-04-28T14:28:14;0.00;;;0.00;;
23062;SDS011;11699;43.704;10.430;2023-04-28T14:30:42;0.00;;;0.00;;
23062;SDS011;11699;43.704;10.430;2023-04-28T14:33:09;0.00;;;0.00;;
23062;SDS011;11699;43.704;10.430;2023-04-28T14:35:37;0.00;;;0.00;;
23062;SDS011;11699;43.704;10.430;2023-04-28T14:38:07;0.00;;;0.00;;
23062;SDS011;11699;43.704;10.430;2023-04-28T14:40:34;0.00;;;0.00;;
23062;SDS011;11699;43.704;10.430;2023-04-28T14:43:02;0.00;;;0.00;;
23062;SDS011;11699;43.704;10.430;2023-04-28T14:45:30;0.00;;;0.00;;
23062;SDS011;11699;43.704;10.430;2023-04-28T14:47:58;0.00;;;0.00;;
23062;SDS011;11699;43.704;10.430;2023-04-28T14:50:25;0.00;;;0.00;;
23062;SDS011;11699;43.704;10.430;2023-04-28T14:52:53;0.00;;;0.00;;
23062;SDS011;11699;43.704;10.430;2023-04-28T14:55:22;0.00;;;0.00;;
23062;SDS011;11699;43.704;10.430;2023-04-28T14:57:49;0.00;;;0.00;;
23062;SDS011;11699;43.704;10.430;2023-04-28T15:00:17;0.00;;;0.00;;